createdAt,value
2023-04-30T00:00:33.797Z,16.40
2023-04-30T00:03:01.832Z,16.39
2023-04-30T00:05:29.827Z,16.33
2023-04-30T00:07:57.649Z,16.26
2023-04-30T00:10:25.493Z,16.18
2023-04-30T00:12:53.444Z,16.13
2023-04-30T00:15:21.295Z,16.10
2023-04-30T00:17:49.232Z,16.08
2023-04-30T00:20:17.414Z,16.06
2023-04-30T00:22:45.343Z,16.08
2023-04-30T00:25:13.208Z,15.98
2023-04-30T00:27:41.235Z,15.96
2023-04-30T00:30:09.558Z,15.92
2023-04-30T00:32:37.450Z,15.88
2023-04-30T00:35:05.844Z,15.82
2023-04-30T00:37:33.985Z,15.81
2023-04-30T00:40:01.776Z,15.81
2023-04-30T00:42:30.912Z,15.73
2023-04-30T00:44:58.819Z,15.71
2023-04-30T00:47:26.863Z,15.77
2023-04-30T00:49:55.086Z,15.73
2023-04-30T00:52:23.399Z,15.63
2023-04-30T00:54:53.818Z,15.66
2023-04-30T00:57:22.970Z,15.55
2023-04-30T00:59:51.739Z,15.50
2023-04-30T01:02:20.411Z,15.42
2023-04-30T01:04:48.750Z,15.39
2023-04-30T01:07:16.813Z,15.25
2023-04-30T01:09:44.840Z,15.28
2023-04-30T01:12:26.665Z,15.30
2023-04-30T01:15:08.979Z,15.34
2023-04-30T01:17:59.443Z,15.39
2023-04-30T01:20:30.007Z,15.50
2023-04-30T01:23:13.729Z,15.47
2023-04-30T01:26:00.690Z,15.26
2023-04-30T01:28:29.018Z,15.25
2023-04-30T01:30:58.915Z,15.25
2023-04-30T01:33:27.311Z,15.05
2023-04-30T01:36:02.196Z,15.03
2023-04-30T01:38:42.283Z,14.95
2023-04-30T01:41:38.021Z,14.87
2023-04-30T01:44:17.274Z,14.88
2023-04-30T01:47:09.760Z,14.83
2023-04-30T01:50:03.911Z,14.81
2023-04-30T01:52:38.471Z,14.51
2023-04-30T01:55:12.597Z,14.60
2023-04-30T01:57:50.111Z,14.69
2023-04-30T02:00:18.190Z,14.68
2023-04-30T02:02:46.206Z,14.68
2023-04-30T02:05:14.215Z,14.74
2023-04-30T02:07:47.007Z,14.81
2023-04-30T02:10:15.243Z,14.76
2023-04-30T02:12:43.248Z,14.82
2023-04-30T02:15:11.492Z,14.77
2023-04-30T02:17:41.988Z,14.62
2023-04-30T02:20:10.307Z,14.75
2023-04-30T02:22:38.327Z,14.76
2023-04-30T02:25:06.692Z,14.63
2023-04-30T02:27:35.141Z,14.75
2023-04-30T02:30:03.342Z,14.84
2023-04-30T02:32:31.683Z,14.80
2023-04-30T02:34:59.747Z,14.77
2023-04-30T02:37:27.650Z,14.75
2023-04-30T02:39:55.848Z,14.71
2023-04-30T02:42:23.913Z,14.69
2023-04-30T02:44:51.893Z,14.74
2023-04-30T02:47:19.849Z,14.48
2023-04-30T02:49:47.730Z,14.43
2023-04-30T02:52:15.575Z,14.37
2023-04-30T02:54:43.526Z,14.34
2023-04-30T02:57:12.010Z,14.33
2023-04-30T02:59:40.558Z,14.33
2023-04-30T03:02:08.549Z,14.26
2023-04-30T03:04:36.437Z,14.27
2023-04-30T03:07:07.025Z,14.24
2023-04-30T03:09:36.789Z,14.15
2023-04-30T03:12:04.903Z,14.04
2023-04-30T03:14:32.780Z,14.00
2023-04-30T03:17:00.587Z,14.02
2023-04-30T03:19:29.330Z,14.06
2023-04-30T03:21:57.280Z,14.11
2023-04-30T03:24:25.608Z,14.06
2023-04-30T03:26:53.504Z,14.00
2023-04-30T03:29:21.324Z,13.96
2023-04-30T03:31:49.268Z,13.89
2023-04-30T03:34:17.154Z,13.87
2023-04-30T03:36:45.056Z,13.90
2023-04-30T03:39:13.028Z,13.98
2023-04-30T03:41:40.892Z,13.76
2023-04-30T03:44:16.006Z,14.02
2023-04-30T03:46:44.117Z,13.98
2023-04-30T03:49:12.193Z,13.93
2023-04-30T03:51:42.182Z,13.92
2023-04-30T03:54:10.483Z,13.94
2023-04-30T03:56:38.910Z,13.95
2023-04-30T03:59:06.956Z,13.88
2023-04-30T04:01:34.989Z,13.96
2023-04-30T04:04:03.534Z,13.91
2023-04-30T04:06:33.115Z,13.93
2023-04-30T04:09:01.098Z,13.91
2023-04-30T04:11:29.069Z,13.93
2023-04-30T04:13:57.950Z,13.91
2023-04-30T04:16:26.269Z,13.93
2023-04-30T04:18:55.029Z,13.93
2023-04-30T04:21:22.936Z,13.97
2023-04-30T04:23:50.932Z,14.01
2023-04-30T04:26:21.710Z,14.08
2023-04-30T04:28:49.636Z,14.11
2023-04-30T04:31:18.437Z,14.11
2023-04-30T04:33:47.008Z,14.16
2023-04-30T04:36:14.867Z,14.26
2023-04-30T04:38:43.176Z,14.38
2023-04-30T04:41:11.056Z,14.60
2023-04-30T04:43:38.969Z,14.65
2023-04-30T04:46:10.627Z,14.72
2023-04-30T04:48:39.669Z,14.83
2023-04-30T04:51:07.626Z,15.01
2023-04-30T04:53:35.546Z,15.10
2023-04-30T04:56:03.613Z,15.09
2023-04-30T04:58:31.847Z,15.08
2023-04-30T05:01:00.400Z,15.03
2023-04-30T05:03:29.542Z,14.93
2023-04-30T05:05:57.605Z,14.99
2023-04-30T05:08:25.786Z,15.03
2023-04-30T05:10:53.638Z,14.95
2023-04-30T05:13:21.665Z,14.94
2023-04-30T05:15:52.319Z,14.91
2023-04-30T05:18:20.747Z,15.13
2023-04-30T05:20:49.022Z,15.23
2023-04-30T05:23:16.964Z,15.36
2023-04-30T05:25:45.690Z,15.45
2023-04-30T05:28:13.586Z,15.57
2023-04-30T05:30:41.388Z,15.71
2023-04-30T05:33:09.337Z,15.63
2023-04-30T05:35:37.370Z,15.53
2023-04-30T05:38:05.359Z,15.67
2023-04-30T05:40:33.270Z,15.65
2023-04-30T05:43:01.182Z,15.65
2023-04-30T05:45:29.118Z,15.59
2023-04-30T05:47:57.123Z,15.59
2023-04-30T05:50:25.054Z,15.65
2023-04-30T05:52:53.003Z,15.69
2023-04-30T05:55:20.893Z,15.81
2023-04-30T05:57:48.809Z,15.73
2023-04-30T06:00:16.793Z,15.84
2023-04-30T06:02:44.848Z,15.94
2023-04-30T06:05:15.971Z,16.14
2023-04-30T06:07:45.111Z,16.24
2023-04-30T06:10:13.152Z,16.31
2023-04-30T06:12:41.413Z,16.50
2023-04-30T06:15:09.545Z,16.56
2023-04-30T06:17:37.726Z,16.68
2023-04-30T06:20:07.124Z,16.68
2023-04-30T06:22:35.193Z,16.91
2023-04-30T06:25:03.753Z,16.97
2023-04-30T06:27:33.188Z,17.02
2023-04-30T06:30:02.251Z,16.99
2023-04-30T06:32:30.599Z,17.05
2023-04-30T06:34:58.958Z,16.95
2023-04-30T06:37:27.000Z,17.25
2023-04-30T06:39:54.978Z,17.37
2023-04-30T06:42:23.312Z,17.45
2023-04-30T06:44:51.415Z,17.56
2023-04-30T06:47:19.357Z,17.68
2023-04-30T06:49:47.361Z,17.76
2023-04-30T06:52:15.175Z,17.66
2023-04-30T06:54:44.080Z,17.84
2023-04-30T06:57:12.560Z,18.01
2023-04-30T06:59:40.444Z,18.16
2023-04-30T07:02:08.529Z,18.27
2023-04-30T07:04:36.526Z,18.40
2023-04-30T07:07:04.705Z,18.50
2023-04-30T07:09:32.580Z,18.44
2023-04-30T07:12:01.074Z,18.31
2023-04-30T07:14:28.964Z,18.24
2023-04-30T07:16:56.839Z,18.31
2023-04-30T07:19:27.116Z,18.38
2023-04-30T07:21:54.992Z,18.03
2023-04-30T07:24:22.851Z,18.51
2023-04-30T07:26:51.061Z,18.73
2023-04-30T07:29:19.561Z,18.84
2023-04-30T07:31:47.975Z,18.79
2023-04-30T07:34:15.785Z,18.90
2023-04-30T07:36:43.774Z,19.01
2023-04-30T07:39:11.937Z,19.11
2023-04-30T07:41:39.848Z,19.26
2023-04-30T07:44:07.733Z,19.30
2023-04-30T07:46:36.718Z,19.38
2023-04-30T07:49:04.787Z,19.29
2023-04-30T07:51:33.129Z,19.36
2023-04-30T07:54:01.126Z,19.67
2023-04-30T07:56:29.020Z,19.57
2023-04-30T07:58:57.088Z,19.52
2023-04-30T08:01:24.933Z,19.55
2023-04-30T08:03:52.879Z,19.48
2023-04-30T08:06:20.805Z,19.56
2023-04-30T08:08:48.885Z,19.41
2023-04-30T08:11:19.179Z,19.44
2023-04-30T08:13:47.525Z,19.59
2023-04-30T08:16:16.020Z,19.71
2023-04-30T08:18:46.904Z,19.84
2023-04-30T08:21:15.247Z,19.65
2023-04-30T08:23:43.476Z,19.73
2023-04-30T08:26:13.502Z,19.88
2023-04-30T08:28:43.741Z,19.77
2023-04-30T08:31:13.014Z,20.05
2023-04-30T08:33:41.391Z,19.90
2023-04-30T08:36:11.024Z,20.05
2023-04-30T08:38:40.545Z,19.86
2023-04-30T08:41:14.903Z,20.08
2023-04-30T08:43:47.858Z,20.29
2023-04-30T08:46:19.416Z,20.42
2023-04-30T08:48:50.802Z,20.46
2023-04-30T08:51:18.984Z,20.74
2023-04-30T08:53:48.330Z,20.60
2023-04-30T08:56:16.262Z,20.68
2023-04-30T08:58:44.569Z,20.50
2023-04-30T09:01:12.448Z,20.58
2023-04-30T09:03:41.020Z,20.63
2023-04-30T09:06:08.957Z,20.14
2023-04-30T09:08:44.945Z,20.40
2023-04-30T09:11:31.706Z,20.50
2023-04-30T09:14:01.488Z,20.38
2023-04-30T09:16:45.786Z,20.54
2023-04-30T09:19:27.399Z,20.60
2023-04-30T09:21:55.742Z,20.66
2023-04-30T09:24:24.409Z,20.91
2023-04-30T09:26:52.405Z,21.06
2023-04-30T09:29:23.156Z,21.03
2023-04-30T09:31:51.127Z,21.11
2023-04-30T09:34:19.011Z,21.09
2023-04-30T09:36:56.152Z,20.79
2023-04-30T09:39:24.229Z,20.83
2023-04-30T09:41:54.742Z,21.00
2023-04-30T09:44:29.914Z,20.98
2023-04-30T09:46:59.007Z,21.25
2023-04-30T09:49:27.809Z,21.15
2023-04-30T09:51:59.306Z,21.18
2023-04-30T09:54:32.429Z,21.10
2023-04-30T09:57:02.411Z,21.29
2023-04-30T09:59:39.520Z,21.14
2023-04-30T10:02:08.887Z,21.45
2023-04-30T10:04:38.856Z,21.69
2023-04-30T10:07:16.595Z,21.68
2023-04-30T10:09:51.244Z,21.62
2023-04-30T10:12:26.025Z,21.80
2023-04-30T10:15:11.627Z,21.70
2023-04-30T10:17:41.770Z,21.83
2023-04-30T10:20:12.011Z,21.69
2023-04-30T10:22:41.989Z,21.91
2023-04-30T10:25:13.660Z,22.14
2023-04-30T10:27:41.616Z,22.18
2023-04-30T10:30:10.940Z,22.06
2023-04-30T10:32:47.949Z,22.11
2023-04-30T10:35:16.291Z,22.03
2023-04-30T10:37:49.934Z,21.97
2023-04-30T10:40:19.775Z,21.73
2023-04-30T10:42:50.712Z,21.78
2023-04-30T10:45:20.986Z,21.64
2023-04-30T10:47:49.092Z,21.82
2023-04-30T10:50:17.509Z,21.52
2023-04-30T10:52:45.327Z,21.83
2023-04-30T10:55:18.461Z,21.68
2023-04-30T10:57:48.570Z,21.53
2023-04-30T11:00:20.567Z,21.74
2023-04-30T11:02:49.289Z,21.93
2023-04-30T11:05:18.822Z,22.15
2023-04-30T11:08:11.702Z,22.31
2023-04-30T11:10:59.024Z,22.03
2023-04-30T11:13:27.743Z,22.14
2023-04-30T11:16:03.486Z,22.35
2023-04-30T11:18:31.702Z,22.31
2023-04-30T11:20:59.743Z,22.37
2023-04-30T11:23:38.523Z,22.70
2023-04-30T11:26:10.783Z,23.02
2023-04-30T11:28:38.884Z,23.35
2023-04-30T11:31:06.929Z,23.22
2023-04-30T11:33:36.018Z,23.04
2023-04-30T11:36:04.125Z,23.22
2023-04-30T11:38:36.966Z,23.40
2023-04-30T11:41:05.632Z,22.98
2023-04-30T11:43:34.961Z,22.81
2023-04-30T11:46:09.937Z,22.97
2023-04-30T11:48:42.580Z,22.60
2023-04-30T11:51:27.150Z,22.83
2023-04-30T11:53:55.153Z,22.75
2023-04-30T11:56:24.698Z,22.75
2023-04-30T11:58:55.953Z,22.76
2023-04-30T12:01:27.678Z,22.65
2023-04-30T12:03:58.250Z,22.63
2023-04-30T12:06:28.272Z,22.74
2023-04-30T12:08:58.070Z,22.57
2023-04-30T12:11:28.821Z,22.87
2023-04-30T12:14:17.122Z,22.88
2023-04-30T12:16:49.517Z,22.85
2023-04-30T12:19:19.516Z,22.93
2023-04-30T12:21:49.438Z,23.19
2023-04-30T12:24:19.245Z,23.28
2023-04-30T12:26:48.456Z,23.19
2023-04-30T12:29:18.451Z,22.96
2023-04-30T12:31:51.127Z,23.24
2023-04-30T12:34:19.210Z,23.32
2023-04-30T12:36:47.097Z,24.08
2023-04-30T12:39:16.588Z,24.19
2023-04-30T12:41:49.773Z,24.08
2023-04-30T12:44:18.792Z,24.16
2023-04-30T12:46:49.381Z,23.83
2023-04-30T12:49:33.714Z,24.18
2023-04-30T12:52:07.628Z,23.76
2023-04-30T12:54:37.461Z,23.75
2023-04-30T12:57:07.691Z,23.71
2023-04-30T12:59:40.627Z,23.89
2023-04-30T13:02:14.949Z,23.92
2023-04-30T13:04:44.721Z,23.79
2023-04-30T13:07:12.786Z,23.56
2023-04-30T13:09:40.992Z,23.75
2023-04-30T13:12:08.916Z,23.91
2023-04-30T13:14:36.878Z,23.76
2023-04-30T13:17:07.133Z,23.81
2023-04-30T13:19:35.437Z,23.74
2023-04-30T13:22:03.374Z,23.68
2023-04-30T13:24:31.474Z,22.97
2023-04-30T13:26:59.505Z,22.74
2023-04-30T13:29:27.843Z,22.73
2023-04-30T13:31:55.879Z,22.52
2023-04-30T13:34:23.963Z,22.66
2023-04-30T13:36:53.626Z,22.99
2023-04-30T13:39:22.152Z,22.94
2023-04-30T13:41:50.079Z,22.75
2023-04-30T13:44:17.964Z,22.48
2023-04-30T13:46:46.068Z,22.79
2023-04-30T13:49:14.128Z,22.73
2023-04-30T13:51:42.060Z,23.35
2023-04-30T13:54:10.016Z,23.48
2023-04-30T13:56:38.551Z,23.96
2023-04-30T13:59:06.484Z,24.15
2023-04-30T14:01:34.592Z,24.45
2023-04-30T14:04:03.208Z,24.24
2023-04-30T14:06:32.326Z,24.18
2023-04-30T14:09:00.300Z,24.20
2023-04-30T14:11:28.445Z,23.91
2023-04-30T14:13:56.372Z,24.08
2023-04-30T14:16:25.461Z,23.60
2023-04-30T14:18:53.449Z,23.99
2023-04-30T14:21:21.469Z,23.71
2023-04-30T14:23:49.373Z,23.58
2023-04-30T14:26:17.263Z,23.65
2023-04-30T14:28:45.338Z,23.71
2023-04-30T14:31:13.793Z,24.06
2023-04-30T14:33:42.464Z,24.10
2023-04-30T14:36:13.312Z,23.88
2023-04-30T14:38:41.539Z,24.00
2023-04-30T14:41:09.728Z,23.99
2023-04-30T14:43:37.707Z,24.16
2023-04-30T14:46:07.547Z,23.90
2023-04-30T14:48:36.157Z,23.77
2023-04-30T14:51:05.257Z,23.78
2023-04-30T14:53:33.486Z,23.81
2023-04-30T14:56:01.717Z,23.89
2023-04-30T14:58:29.991Z,23.48
2023-04-30T15:00:58.144Z,23.38
2023-04-30T15:03:27.771Z,23.53
2023-04-30T15:05:56.252Z,23.52
2023-04-30T15:08:24.463Z,23.11
2023-04-30T15:10:53.231Z,23.07
2023-04-30T15:13:22.270Z,23.30
2023-04-30T15:15:50.843Z,23.09
2023-04-30T15:18:18.770Z,22.82
2023-04-30T15:20:47.412Z,23.04
2023-04-30T15:23:15.763Z,22.81
2023-04-30T15:25:44.622Z,22.61
2023-04-30T15:28:14.668Z,22.82
2023-04-30T15:30:42.737Z,22.50
2023-04-30T15:33:10.878Z,22.36
2023-04-30T15:35:47.064Z,22.48
2023-04-30T15:38:17.382Z,22.84
2023-04-30T15:40:45.348Z,22.71
2023-04-30T15:43:14.093Z,22.51
2023-04-30T15:45:43.451Z,22.44
2023-04-30T15:48:15.044Z,22.14
2023-04-30T15:50:43.081Z,22.19
2023-04-30T15:53:10.941Z,22.16
2023-04-30T15:55:39.019Z,22.08
2023-04-30T15:58:07.049Z,21.87
2023-04-30T16:00:34.937Z,21.98
2023-04-30T16:03:03.000Z,22.01
2023-04-30T16:05:31.712Z,21.95
2023-04-30T16:07:59.948Z,21.99
2023-04-30T16:10:27.839Z,21.97
2023-04-30T16:12:55.846Z,21.59
2023-04-30T16:15:24.623Z,21.66
2023-04-30T16:17:52.906Z,21.82
2023-04-30T16:20:21.567Z,21.88
2023-04-30T16:22:52.871Z,21.82
2023-04-30T16:25:20.929Z,21.87
2023-04-30T16:27:49.886Z,21.85
2023-04-30T16:30:17.921Z,21.91
2023-04-30T16:32:45.939Z,21.84
2023-04-30T16:35:14.028Z,21.71
2023-04-30T16:37:41.951Z,21.61
2023-04-30T16:40:11.159Z,21.31
2023-04-30T16:42:39.070Z,21.55
2023-04-30T16:45:07.554Z,21.33
2023-04-30T16:47:35.581Z,21.40
2023-04-30T16:50:04.143Z,21.53
2023-04-30T16:52:33.414Z,21.64
2023-04-30T16:55:01.360Z,21.35
2023-04-30T16:57:29.249Z,21.63
2023-04-30T16:59:57.441Z,21.59
2023-04-30T17:02:25.799Z,21.58
2023-04-30T17:04:54.210Z,21.46
2023-04-30T17:07:22.048Z,21.44
2023-04-30T17:09:50.729Z,21.48
2023-04-30T17:12:18.668Z,21.52
2023-04-30T17:14:47.724Z,21.48
2023-04-30T17:17:15.640Z,21.43
2023-04-30T17:19:43.568Z,21.52
2023-04-30T17:22:13.297Z,21.57
2023-04-30T17:24:41.232Z,21.43
2023-04-30T17:27:09.636Z,21.26
2023-04-30T17:29:37.768Z,21.22
2023-04-30T17:32:05.903Z,21.32
2023-04-30T17:34:33.757Z,21.37
2023-04-30T17:37:01.608Z,21.23
2023-04-30T17:39:32.630Z,21.23
2023-04-30T17:42:01.059Z,21.28
2023-04-30T17:44:31.531Z,21.25
2023-04-30T17:46:59.524Z,21.24
2023-04-30T17:49:28.614Z,21.20
2023-04-30T17:51:59.226Z,21.31
2023-04-30T17:54:29.148Z,21.33
2023-04-30T17:56:59.266Z,21.14
2023-04-30T17:59:30.093Z,21.20
2023-04-30T18:01:59.224Z,21.31
2023-04-30T18:04:27.119Z,21.17
2023-04-30T18:06:55.069Z,21.18
2023-04-30T18:09:23.146Z,21.05
2023-04-30T18:11:51.741Z,20.85
2023-04-30T18:14:19.644Z,21.02
2023-04-30T18:16:48.856Z,20.98
2023-04-30T18:19:18.233Z,21.06
2023-04-30T18:21:46.191Z,21.01
2023-04-30T18:24:14.126Z,20.94
2023-04-30T18:26:41.991Z,20.85
2023-04-30T18:29:10.363Z,20.87
2023-04-30T18:31:38.516Z,20.89
2023-04-30T18:34:07.085Z,21.03
2023-04-30T18:36:36.280Z,20.98
2023-04-30T18:39:05.713Z,20.81
2023-04-30T18:41:33.535Z,20.90
2023-04-30T18:44:04.137Z,20.82
2023-04-30T18:46:32.136Z,20.81
2023-04-30T18:49:00.034Z,20.72
2023-04-30T18:51:28.004Z,20.79
2023-04-30T18:53:57.477Z,20.81
2023-04-30T18:56:25.606Z,20.81
2023-04-30T18:58:53.527Z,20.86
2023-04-30T19:01:23.123Z,20.65
2023-04-30T19:03:51.232Z,20.68
2023-04-30T19:06:19.218Z,20.76
2023-04-30T19:08:47.134Z,20.53
2023-04-30T19:11:15.408Z,20.53
2023-04-30T19:13:43.226Z,20.49
2023-04-30T19:16:11.120Z,20.52
2023-04-30T19:18:39.762Z,20.45
2023-04-30T19:21:08.993Z,20.47
2023-04-30T19:23:36.918Z,20.48
2023-04-30T19:26:04.889Z,20.39
2023-04-30T19:28:32.773Z,20.38
2023-04-30T19:31:00.904Z,20.47
2023-04-30T19:33:28.968Z,20.39
2023-04-30T19:35:57.988Z,20.37
2023-04-30T19:38:32.267Z,20.17
2023-04-30T19:41:01.898Z,20.31
2023-04-30T19:43:32.730Z,20.37
2023-04-30T19:46:02.567Z,20.41
2023-04-30T19:48:31.696Z,20.36
2023-04-30T19:51:05.367Z,20.34
2023-04-30T19:53:35.163Z,20.19
2023-04-30T19:56:03.356Z,20.20
2023-04-30T19:58:32.003Z,20.25
2023-04-30T20:01:00.462Z,20.27
2023-04-30T20:03:29.102Z,19.86
2023-04-30T20:05:58.472Z,19.63
2023-04-30T20:08:26.705Z,19.34
2023-04-30T20:10:55.118Z,19.19
2023-04-30T20:13:25.735Z,19.12
2023-04-30T20:15:54.856Z,18.92
2023-04-30T20:18:22.777Z,18.95
2023-04-30T20:20:50.866Z,18.83
2023-04-30T20:23:19.410Z,18.90
2023-04-30T20:25:48.029Z,18.93
2023-04-30T20:28:19.271Z,18.82
2023-04-30T20:30:50.532Z,18.82
2023-04-30T20:33:20.951Z,18.86
2023-04-30T20:35:49.748Z,18.80
2023-04-30T20:38:19.979Z,18.78
2023-04-30T20:40:48.799Z,18.82
2023-04-30T20:43:17.282Z,18.84
2023-04-30T20:45:45.546Z,18.81
2023-04-30T20:48:13.727Z,18.80
2023-04-30T20:50:42.216Z,18.79
2023-04-30T20:53:11.309Z,18.79
2023-04-30T20:55:39.439Z,18.78
2023-04-30T20:58:09.209Z,18.78
2023-04-30T21:00:37.171Z,18.72
2023-04-30T21:03:05.770Z,18.72
2023-04-30T21:05:34.446Z,18.70
2023-04-30T21:08:02.487Z,18.68
2023-04-30T21:10:36.548Z,18.61
2023-04-30T21:13:06.113Z,18.56
2023-04-30T21:15:35.936Z,18.51
2023-04-30T21:18:04.137Z,18.43
2023-04-30T21:20:32.465Z,18.41
2023-04-30T21:23:02.562Z,18.37
2023-04-30T21:25:30.732Z,18.28
2023-04-30T21:27:58.863Z,18.28
2023-04-30T21:30:26.953Z,18.35
2023-04-30T21:33:04.877Z,18.27
2023-04-30T21:35:33.222Z,18.33
2023-04-30T21:38:01.118Z,18.32
2023-04-30T21:40:32.421Z,18.22
2023-04-30T21:43:01.787Z,18.25
2023-04-30T21:45:32.039Z,18.27
2023-04-30T21:48:00.383Z,18.20
2023-04-30T21:50:28.398Z,18.18
2023-04-30T21:52:56.234Z,18.27
2023-04-30T21:55:24.252Z,18.19
2023-04-30T21:57:52.111Z,18.16
2023-04-30T22:00:21.252Z,18.12
2023-04-30T22:02:50.818Z,18.16
2023-04-30T22:05:19.848Z,18.13
2023-04-30T22:07:48.271Z,18.08
2023-04-30T22:10:16.408Z,17.95
2023-04-30T22:12:47.692Z,17.91
2023-04-30T22:15:16.156Z,17.88
2023-04-30T22:17:44.409Z,17.94
2023-04-30T22:20:12.874Z,17.87
2023-04-30T22:22:41.980Z,17.78
2023-04-30T22:25:10.610Z,17.76
2023-04-30T22:27:38.594Z,17.69
2023-04-30T22:30:07.320Z,17.63
2023-04-30T22:32:35.514Z,17.72
2023-04-30T22:35:03.664Z,17.71
2023-04-30T22:37:31.587Z,17.64
2023-04-30T22:39:59.573Z,17.52
2023-04-30T22:42:28.851Z,17.48
2023-04-30T22:44:57.573Z,17.45
2023-04-30T22:47:27.508Z,17.45
2023-04-30T22:49:56.837Z,17.44
2023-04-30T22:52:26.193Z,17.41
2023-04-30T22:54:54.029Z,17.42
2023-04-30T22:57:25.713Z,17.42
2023-04-30T22:59:54.305Z,17.41
2023-04-30T23:02:23.208Z,17.45
2023-04-30T23:04:51.772Z,17.36
2023-04-30T23:07:19.663Z,17.30
2023-04-30T23:09:47.529Z,17.25
2023-04-30T23:12:16.302Z,17.18
2023-04-30T23:14:44.342Z,17.18
2023-04-30T23:17:12.172Z,17.17
2023-04-30T23:19:40.128Z,17.16
2023-04-30T23:22:07.936Z,17.17
2023-04-30T23:24:36.172Z,17.22
2023-04-30T23:27:04.635Z,17.22
2023-04-30T23:29:33.764Z,17.28
2023-04-30T23:32:02.967Z,17.28
2023-04-30T23:34:30.827Z,17.24
2023-04-30T23:36:58.582Z,17.22
2023-04-30T23:39:26.593Z,17.28
2023-04-30T23:41:54.399Z,17.24
2023-04-30T23:44:22.548Z,17.13
2023-04-30T23:46:51.271Z,17.13
2023-04-30T23:49:19.362Z,17.16
2023-04-30T23:51:47.159Z,17.02
2023-04-30T23:54:15.108Z,17.07
2023-04-30T23:56:42.961Z,17.08
2023-04-30T23:59:10.771Z,17.00
